sensor_id;sensor_type;location;lat;lon;timestamp;temperature;humidity
60234;DHT22;49514;43.538;-5.708;2022-08-23T00:01:25;23.40;99.90
60234;DHT22;49514;43.538;-5.708;2022-08-23T00:03:54;23.40;99.90
60234;DHT22;49514;43.538;-5.708;2022-08-23T00:06:21;23.40;99.90
60234;DHT22;49514;43.538;-5.708;2022-08-23T00:08:49;23.40;99.90
60234;DHT22;49514;43.538;-5.708;2022-08-23T00:11:50;23.40;99.90
60234;DHT22;49514;43.538;-5.708;2022-08-23T00:14:22;23.40;99.90
60234;DHT22;49514;43.538;-5.708;2022-08-23T00:16:51;23.40;99.90
60234;DHT22;49514;43.538;-5.708;2022-08-23T00:19:19;23.40;99.90
60234;DHT22;49514;43.538;-5.708;2022-08-23T00:21:47;23.40;99.90
60234;DHT22;49514;43.538;-5.708;2022-08-23T00:24:16;23.40;99.90
60234;DHT22;49514;43.538;-5.708;2022-08-23T00:27:08;23.40;99.90
60234;DHT22;49514;43.538;-5.708;2022-08-23T00:29:45;23.30;99.90
60234;DHT22;49514;43.538;-5.708;2022-08-23T00:32:28;23.40;99.90
60234;DHT22;49514;43.538;-5.708;2022-08-23T00:34:55;23.40;99.90
60234;DHT22;49514;43.538;-5.708;2022-08-23T00:37:25;23.40;99.90
60234;DHT22;49514;43.538;-5.708;2022-08-23T00:39:52;23.40;99.90
60234;DHT22;49514;43.538;-5.708;2022-08-23T00:42:37;23.40;99.90
60234;DHT22;49514;43.538;-5.708;2022-08-23T00:45:35;23.40;99.90
60234;DHT22;49514;43.538;-5.708;2022-08-23T00:48:22;23.40;99.90
60234;DHT22;49514;43.538;-5.708;2022-08-23T00:51:05;23.40;99.90
60234;DHT22;49514;43.538;-5.708;2022-08-23T00:53:38;23.40;99.90
60234;DHT22;49514;43.538;-5.708;2022-08-23T00:56:08;23.30;99.90
60234;DHT22;49514;43.538;-5.708;2022-08-23T00:58:35;23.30;99.90
60234;DHT22;49514;43.538;-5.708;2022-08-23T01:01:04;23.30;99.90
60234;DHT22;49514;43.538;-5.708;2022-08-23T01:03:34;23.30;99.90
60234;DHT22;49514;43.538;-5.708;2022-08-23T01:08:37;23.20;99.90
60234;DHT22;49514;43.538;-5.708;2022-08-23T01:11:12;23.30;99.90
60234;DHT22;49514;43.538;-5.708;2022-08-23T01:14:04;23.20;99.90
60234;DHT22;49514;43.538;-5.708;2022-08-23T01:16:43;23.20;99.90
60234;DHT22;49514;43.538;-5.708;2022-08-23T01:19:17;23.10;99.90
60234;DHT22;49514;43.538;-5.708;2022-08-23T01:21:50;23.10;99.90
60234;DHT22;49514;43.538;-5.708;2022-08-23T01:24:18;23.10;99.90
60234;DHT22;49514;43.538;-5.708;2022-08-23T01:26:46;23.10;99.90
60234;DHT22;49514;43.538;-5.708;2022-08-23T01:29:13;23.10;99.90
60234;DHT22;49514;43.538;-5.708;2022-08-23T01:31:42;23.10;99.90
60234;DHT22;49514;43.538;-5.708;2022-08-23T01:34:10;23.10;99.90
60234;DHT22;49514;43.538;-5.708;2022-08-23T01:36:41;23.10;99.90
60234;DHT22;49514;43.538;-5.708;2022-08-23T01:39:08;23.10;99.90
60234;DHT22;49514;43.538;-5.708;2022-08-23T01:41:35;23.00;99.90
60234;DHT22;49514;43.538;-5.708;2022-08-23T01:44:06;23.00;99.90
60234;DHT22;49514;43.538;-5.708;2022-08-23T01:46:35;23.00;99.90
60234;DHT22;49514;43.538;-5.708;2022-08-23T01:49:03;23.00;99.90
60234;DHT22;49514;43.538;-5.708;2022-08-23T01:51:31;22.90;99.90
60234;DHT22;49514;43.538;-5.708;2022-08-23T01:53:58;22.90;99.90
60234;DHT22;49514;43.538;-5.708;2022-08-23T01:56:28;22.90;99.90
60234;DHT22;49514;43.538;-5.708;2022-08-23T01:58:56;22.90;99.90
60234;DHT22;49514;43.538;-5.708;2022-08-23T02:01:25;22.90;99.90
60234;DHT22;49514;43.538;-5.708;2022-08-23T02:03:52;23.00;99.90
60234;DHT22;49514;43.538;-5.708;2022-08-23T02:06:18;23.00;99.90
60234;DHT22;49514;43.538;-5.708;2022-08-23T02:08:48;23.00;99.90
60234;DHT22;49514;43.538;-5.708;2022-08-23T02:11:37;22.90;99.90
60234;DHT22;49514;43.538;-5.708;2022-08-23T02:14:10;22.90;99.90
60234;DHT22;49514;43.538;-5.708;2022-08-23T02:16:52;22.90;99.90
60234;DHT22;49514;43.538;-5.708;2022-08-23T02:19:19;22.90;99.90
60234;DHT22;49514;43.538;-5.708;2022-08-23T02:21:46;22.90;99.90
60234;DHT22;49514;43.538;-5.708;2022-08-23T02:24:21;22.90;99.90
60234;DHT22;49514;43.538;-5.708;2022-08-23T02:26:54;22.90;99.90
60234;DHT22;49514;43.538;-5.708;2022-08-23T02:29:23;22.90;99.90
60234;DHT22;49514;43.538;-5.708;2022-08-23T02:31:52;23.00;99.90
60234;DHT22;49514;43.538;-5.708;2022-08-23T02:34:19;22.90;99.90
60234;DHT22;49514;43.538;-5.708;2022-08-23T02:36:46;22.90;99.90
60234;DHT22;49514;43.538;-5.708;2022-08-23T02:39:15;22.90;99.90
60234;DHT22;49514;43.538;-5.708;2022-08-23T02:41:42;22.90;99.90
60234;DHT22;49514;43.538;-5.708;2022-08-23T02:44:10;23.00;99.90
60234;DHT22;49514;43.538;-5.708;2022-08-23T02:46:40;23.00;99.90
60234;DHT22;49514;43.538;-5.708;2022-08-23T02:49:08;23.00;99.90
60234;DHT22;49514;43.538;-5.708;2022-08-23T02:51:35;23.00;99.90
60234;DHT22;49514;43.538;-5.708;2022-08-23T02:54:03;23.00;99.90
60234;DHT22;49514;43.538;-5.708;2022-08-23T02:56:30;22.90;99.90
60234;DHT22;49514;43.538;-5.708;2022-08-23T02:58:58;22.90;99.90
60234;DHT22;49514;43.538;-5.708;2022-08-23T03:01:29;22.90;99.90
60234;DHT22;49514;43.538;-5.708;2022-08-23T03:04:02;22.90;99.90
60234;DHT22;49514;43.538;-5.708;2022-08-23T03:06:30;22.90;99.90
60234;DHT22;49514;43.538;-5.708;2022-08-23T03:08:57;22.90;99.90
60234;DHT22;49514;43.538;-5.708;2022-08-23T03:11:24;22.90;99.90
60234;DHT22;49514;43.538;-5.708;2022-08-23T03:13:53;22.90;99.90
60234;DHT22;49514;43.538;-5.708;2022-08-23T03:16:22;22.90;99.90
60234;DHT22;49514;43.538;-5.708;2022-08-23T03:18:50;22.90;99.90
60234;DHT22;49514;43.538;-5.708;2022-08-23T03:21:17;22.90;99.90
60234;DHT22;49514;43.538;-5.708;2022-08-23T03:23:45;22.90;99.90
60234;DHT22;49514;43.538;-5.708;2022-08-23T03:26:13;22.90;99.90
60234;DHT22;49514;43.538;-5.708;2022-08-23T03:28:41;22.70;99.90
60234;DHT22;49514;43.538;-5.708;2022-08-23T03:31:10;22.70;99.90
60234;DHT22;49514;43.538;-5.708;2022-08-23T03:34:09;22.70;99.90
60234;DHT22;49514;43.538;-5.708;2022-08-23T03:36:37;22.70;99.90
60234;DHT22;49514;43.538;-5.708;2022-08-23T03:39:05;22.70;99.90
60234;DHT22;49514;43.538;-5.708;2022-08-23T03:41:32;22.70;99.90
60234;DHT22;49514;43.538;-5.708;2022-08-23T03:44:00;22.70;99.90
60234;DHT22;49514;43.538;-5.708;2022-08-23T03:46:28;22.60;99.90
60234;DHT22;49514;43.538;-5.708;2022-08-23T03:49:00;22.70;99.90
60234;DHT22;49514;43.538;-5.708;2022-08-23T03:51:34;22.70;99.90
60234;DHT22;49514;43.538;-5.708;2022-08-23T03:54:02;22.70;99.90
60234;DHT22;49514;43.538;-5.708;2022-08-23T03:56:31;22.70;99.90
60234;DHT22;49514;43.538;-5.708;2022-08-23T03:59:02;22.70;99.90
60234;DHT22;49514;43.538;-5.708;2022-08-23T04:01:29;22.70;99.90
60234;DHT22;49514;43.538;-5.708;2022-08-23T04:03:56;22.70;99.90
60234;DHT22;49514;43.538;-5.708;2022-08-23T04:06:28;22.60;99.90
60234;DHT22;49514;43.538;-5.708;2022-08-23T04:08:55;22.60;99.90
60234;DHT22;49514;43.538;-5.708;2022-08-23T04:11:22;22.60;99.90
60234;DHT22;49514;43.538;-5.708;2022-08-23T04:13:56;22.50;99.90
60234;DHT22;49514;43.538;-5.708;2022-08-23T04:16:23;22.50;99.90
60234;DHT22;49514;43.538;-5.708;2022-08-23T04:18:50;22.40;99.90
60234;DHT22;49514;43.538;-5.708;2022-08-23T04:21:21;22.30;99.90
60234;DHT22;49514;43.538;-5.708;2022-08-23T04:23:49;22.30;99.90
60234;DHT22;49514;43.538;-5.708;2022-08-23T04:26:16;22.20;99.90
60234;DHT22;49514;43.538;-5.708;2022-08-23T04:28:43;22.20;99.90
60234;DHT22;49514;43.538;-5.708;2022-08-23T04:31:10;22.10;99.90
60234;DHT22;49514;43.538;-5.708;2022-08-23T04:33:38;22.10;99.90
60234;DHT22;49514;43.538;-5.708;2022-08-23T04:36:06;22.10;99.90
60234;DHT22;49514;43.538;-5.708;2022-08-23T04:38:32;22.10;99.90
60234;DHT22;49514;43.538;-5.708;2022-08-23T04:41:04;22.10;99.90
60234;DHT22;49514;43.538;-5.708;2022-08-23T04:43:49;22.00;99.90
60234;DHT22;49514;43.538;-5.708;2022-08-23T04:46:17;22.00;99.90
60234;DHT22;49514;43.538;-5.708;2022-08-23T04:48:46;22.00;99.90
60234;DHT22;49514;43.538;-5.708;2022-08-23T04:51:13;22.00;99.90
60234;DHT22;49514;43.538;-5.708;2022-08-23T04:53:41;21.90;99.90
60234;DHT22;49514;43.538;-5.708;2022-08-23T04:56:34;21.90;99.90
60234;DHT22;49514;43.538;-5.708;2022-08-23T04:59:01;22.00;99.90
60234;DHT22;49514;43.538;-5.708;2022-08-23T05:01:29;22.00;99.90
60234;DHT22;49514;43.538;-5.708;2022-08-23T05:03:56;22.00;99.90
60234;DHT22;49514;43.538;-5.708;2022-08-23T05:06:25;22.00;99.90
60234;DHT22;49514;43.538;-5.708;2022-08-23T05:08:52;22.00;99.90
60234;DHT22;49514;43.538;-5.708;2022-08-23T05:11:19;22.10;99.90
60234;DHT22;49514;43.538;-5.708;2022-08-23T05:13:48;22.00;99.90
60234;DHT22;49514;43.538;-5.708;2022-08-23T05:16:15;22.00;99.90
60234;DHT22;49514;43.538;-5.708;2022-08-23T05:18:51;22.10;99.90
60234;DHT22;49514;43.538;-5.708;2022-08-23T05:21:22;22.00;99.90
60234;DHT22;49514;43.538;-5.708;2022-08-23T05:23:50;22.10;99.90
60234;DHT22;49514;43.538;-5.708;2022-08-23T05:26:19;22.00;99.90
60234;DHT22;49514;43.538;-5.708;2022-08-23T05:28:47;22.10;99.90
60234;DHT22;49514;43.538;-5.708;2022-08-23T05:31:20;22.00;99.90
60234;DHT22;49514;43.538;-5.708;2022-08-23T05:34:07;22.00;99.90
60234;DHT22;49514;43.538;-5.708;2022-08-23T05:36:45;22.00;99.90
60234;DHT22;49514;43.538;-5.708;2022-08-23T05:39:14;22.00;99.90
60234;DHT22;49514;43.538;-5.708;2022-08-23T05:41:43;22.00;99.90
60234;DHT22;49514;43.538;-5.708;2022-08-23T05:44:11;22.00;99.90
60234;DHT22;49514;43.538;-5.708;2022-08-23T05:46:40;21.90;99.90
60234;DHT22;49514;43.538;-5.708;2022-08-23T05:49:24;21.90;99.90
60234;DHT22;49514;43.538;-5.708;2022-08-23T05:51:51;21.90;99.90
60234;DHT22;49514;43.538;-5.708;2022-08-23T05:54:19;21.90;99.90
60234;DHT22;49514;43.538;-5.708;2022-08-23T05:56:54;21.80;99.90
60234;DHT22;49514;43.538;-5.708;2022-08-23T05:59:21;21.80;99.90
60234;DHT22;49514;43.538;-5.708;2022-08-23T06:01:48;21.90;99.90
60234;DHT22;49514;43.538;-5.708;2022-08-23T06:04:18;21.90;99.90
60234;DHT22;49514;43.538;-5.708;2022-08-23T06:06:45;21.90;99.90
60234;DHT22;49514;43.538;-5.708;2022-08-23T06:09:15;21.90;99.90
60234;DHT22;49514;43.538;-5.708;2022-08-23T06:11:44;21.90;99.90
60234;DHT22;49514;43.538;-5.708;2022-08-23T06:14:13;21.90;99.90
60234;DHT22;49514;43.538;-5.708;2022-08-23T06:16:45;22.00;99.90
60234;DHT22;49514;43.538;-5.708;2022-08-23T06:19:16;22.10;99.90
60234;DHT22;49514;43.538;-5.708;2022-08-23T06:21:46;22.10;99.90
60234;DHT22;49514;43.538;-5.708;2022-08-23T06:24:14;22.20;99.90
60234;DHT22;49514;43.538;-5.708;2022-08-23T06:26:51;22.30;99.90
60234;DHT22;49514;43.538;-5.708;2022-08-23T06:29:19;22.40;99.90
60234;DHT22;49514;43.538;-5.708;2022-08-23T06:31:50;22.50;99.90
60234;DHT22;49514;43.538;-5.708;2022-08-23T06:34:29;22.60;99.90
60234;DHT22;49514;43.538;-5.708;2022-08-23T06:37:12;22.60;99.90
60234;DHT22;49514;43.538;-5.708;2022-08-23T06:39:58;22.60;99.90
60234;DHT22;49514;43.538;-5.708;2022-08-23T06:42:57;22.60;99.90
60234;DHT22;49514;43.538;-5.708;2022-08-23T06:45:27;22.60;99.90
60234;DHT22;49514;43.538;-5.708;2022-08-23T06:47:55;22.50;99.90
60234;DHT22;49514;43.538;-5.708;2022-08-23T06:50:22;22.50;99.90
60234;DHT22;49514;43.538;-5.708;2022-08-23T06:53:07;22.50;99.90
60234;DHT22;49514;43.538;-5.708;2022-08-23T06:55:39;22.40;99.90
60234;DHT22;49514;43.538;-5.708;2022-08-23T06:58:17;22.30;99.90
60234;DHT22;49514;43.538;-5.708;2022-08-23T07:01:17;22.30;99.90
60234;DHT22;49514;43.538;-5.708;2022-08-23T07:04:01;22.30;99.90
60234;DHT22;49514;43.538;-5.708;2022-08-23T07:07:04;22.20;99.90
60234;DHT22;49514;43.538;-5.708;2022-08-23T07:09:32;22.20;99.90
60234;DHT22;49514;43.538;-5.708;2022-08-23T07:11:59;22.20;99.90
60234;DHT22;49514;43.538;-5.708;2022-08-23T07:14:26;22.20;99.90
60234;DHT22;49514;43.538;-5.708;2022-08-23T07:16:56;22.30;99.90
60234;DHT22;49514;43.538;-5.708;2022-08-23T07:19:26;22.40;99.90
60234;DHT22;49514;43.538;-5.708;2022-08-23T07:21:53;22.50;99.90
60234;DHT22;49514;43.538;-5.708;2022-08-23T07:24:21;22.50;99.90
60234;DHT22;49514;43.538;-5.708;2022-08-23T07:26:50;22.50;99.90
60234;DHT22;49514;43.538;-5.708;2022-08-23T07:29:20;22.60;99.90
60234;DHT22;49514;43.538;-5.708;2022-08-23T07:31:53;22.70;99.90
60234;DHT22;49514;43.538;-5.708;2022-08-23T07:34:21;22.80;99.90
60234;DHT22;49514;43.538;-5.708;2022-08-23T07:36:49;22.80;99.90
60234;DHT22;49514;43.538;-5.708;2022-08-23T07:39:18;23.00;99.90
60234;DHT22;49514;43.538;-5.708;2022-08-23T07:41:46;23.00;99.90
60234;DHT22;49514;43.538;-5.708;2022-08-23T07:44:13;23.10;99.90
60234;DHT22;49514;43.538;-5.708;2022-08-23T07:46:43;23.20;99.90
60234;DHT22;49514;43.538;-5.708;2022-08-23T07:49:11;23.10;99.90
60234;DHT22;49514;43.538;-5.708;2022-08-23T07:51:48;23.10;99.90
60234;DHT22;49514;43.538;-5.708;2022-08-23T07:54:16;23.20;99.90
60234;DHT22;49514;43.538;-5.708;2022-08-23T07:57:12;23.20;99.90
60234;DHT22;49514;43.538;-5.708;2022-08-23T07:59:58;23.30;99.90
60234;DHT22;49514;43.538;-5.708;2022-08-23T08:02:42;23.30;99.90
60234;DHT22;49514;43.538;-5.708;2022-08-23T08:05:18;23.30;99.90
60234;DHT22;49514;43.538;-5.708;2022-08-23T08:07:45;23.40;99.90
60234;DHT22;49514;43.538;-5.708;2022-08-23T08:10:12;23.50;99.90
60234;DHT22;49514;43.538;-5.708;2022-08-23T08:12:39;23.60;99.90
60234;DHT22;49514;43.538;-5.708;2022-08-23T08:15:16;23.60;99.90
60234;DHT22;49514;43.538;-5.708;2022-08-23T08:17:49;23.60;99.90
60234;DHT22;49514;43.538;-5.708;2022-08-23T08:20:18;23.70;99.90
60234;DHT22;49514;43.538;-5.708;2022-08-23T08:23:04;23.80;99.90
60234;DHT22;49514;43.538;-5.708;2022-08-23T08:26:03;23.90;99.90
60234;DHT22;49514;43.538;-5.708;2022-08-23T08:28:32;24.00;99.90
60234;DHT22;49514;43.538;-5.708;2022-08-23T08:30:59;24.20;99.90
60234;DHT22;49514;43.538;-5.708;2022-08-23T08:33:26;24.30;99.90
60234;DHT22;49514;43.538;-5.708;2022-08-23T08:35:54;24.40;99.90
60234;DHT22;49514;43.538;-5.708;2022-08-23T08:38:21;24.50;99.90
60234;DHT22;49514;43.538;-5.708;2022-08-23T08:40:58;24.60;99.90
60234;DHT22;49514;43.538;-5.708;2022-08-23T08:43:41;24.60;99.90
60234;DHT22;49514;43.538;-5.708;2022-08-23T08:46:25;24.50;99.90
60234;DHT22;49514;43.538;-5.708;2022-08-23T08:48:57;24.50;99.90
60234;DHT22;49514;43.538;-5.708;2022-08-23T08:51:56;24.50;99.90
60234;DHT22;49514;43.538;-5.708;2022-08-23T08:54:26;24.50;99.90
60234;DHT22;49514;43.538;-5.708;2022-08-23T08:56:57;24.70;99.90
60234;DHT22;49514;43.538;-5.708;2022-08-23T08:59:33;24.80;99.90
60234;DHT22;49514;43.538;-5.708;2022-08-23T09:02:02;24.80;99.90
60234;DHT22;49514;43.538;-5.708;2022-08-23T09:04:34;24.90;99.90
60234;DHT22;49514;43.538;-5.708;2022-08-23T09:07:20;24.90;99.90
60234;DHT22;49514;43.538;-5.708;2022-08-23T09:10:04;25.00;99.90
60234;DHT22;49514;43.538;-5.708;2022-08-23T09:12:53;25.00;99.90
60234;DHT22;49514;43.538;-5.708;2022-08-23T09:20:53;25.20;99.90
60234;DHT22;49514;43.538;-5.708;2022-08-23T09:23:22;25.30;99.90
60234;DHT22;49514;43.538;-5.708;2022-08-23T09:25:55;25.40;99.90
60234;DHT22;49514;43.538;-5.708;2022-08-23T09:28:30;25.50;99.90
60234;DHT22;49514;43.538;-5.708;2022-08-23T09:30:59;25.50;99.90
60234;DHT22;49514;43.538;-5.708;2022-08-23T09:33:38;25.50;99.90
60234;DHT22;49514;43.538;-5.708;2022-08-23T09:38:35;25.80;99.90
60234;DHT22;49514;43.538;-5.708;2022-08-23T09:41:16;25.90;99.90
60234;DHT22;49514;43.538;-5.708;2022-08-23T09:43:46;26.00;99.90
60234;DHT22;49514;43.538;-5.708;2022-08-23T09:46:31;26.10;99.90
60234;DHT22;49514;43.538;-5.708;2022-08-23T09:49:25;26.30;99.90
60234;DHT22;49514;43.538;-5.708;2022-08-23T09:52:08;26.30;99.90
60234;DHT22;49514;43.538;-5.708;2022-08-23T09:54:36;26.60;99.90
60234;DHT22;49514;43.538;-5.708;2022-08-23T09:57:10;26.70;99.90
60234;DHT22;49514;43.538;-5.708;2022-08-23T09:59:47;26.90;99.90
60234;DHT22;49514;43.538;-5.708;2022-08-23T10:02:30;26.60;99.90
60234;DHT22;49514;43.538;-5.708;2022-08-23T10:05:19;26.80;99.90
60234;DHT22;49514;43.538;-5.708;2022-08-23T10:07:55;26.90;99.90
60234;DHT22;49514;43.538;-5.708;2022-08-23T10:10:46;27.00;99.90
60234;DHT22;49514;43.538;-5.708;2022-08-23T10:13:16;27.10;99.90
60234;DHT22;49514;43.538;-5.708;2022-08-23T10:30:04;27.50;99.90
60234;DHT22;49514;43.538;-5.708;2022-08-23T10:35:26;27.80;99.90
60234;DHT22;49514;43.538;-5.708;2022-08-23T10:46:01;27.30;99.90
60234;DHT22;49514;43.538;-5.708;2022-08-23T10:53:56;26.50;99.90
60234;DHT22;49514;43.538;-5.708;2022-08-23T10:56:27;26.70;99.90
60234;DHT22;49514;43.538;-5.708;2022-08-23T11:01:52;27.30;99.90
60234;DHT22;49514;43.538;-5.708;2022-08-23T11:12:48;28.60;99.90
60234;DHT22;49514;43.538;-5.708;2022-08-23T11:18:46;28.70;99.90
60234;DHT22;49514;43.538;-5.708;2022-08-23T11:31:49;28.70;99.90
60234;DHT22;49514;43.538;-5.708;2022-08-23T11:34:25;28.70;99.90
60234;DHT22;49514;43.538;-5.708;2022-08-23T11:50:42;29.10;99.90
60234;DHT22;49514;43.538;-5.708;2022-08-23T12:01:10;29.60;99.90
60234;DHT22;49514;43.538;-5.708;2022-08-23T12:03:54;29.70;99.90
60234;DHT22;49514;43.538;-5.708;2022-08-23T12:08:57;29.90;99.90
60234;DHT22;49514;43.538;-5.708;2022-08-23T12:19:42;30.20;99.90
60234;DHT22;49514;43.538;-5.708;2022-08-23T12:22:15;30.30;99.90
60234;DHT22;49514;43.538;-5.708;2022-08-23T12:25:06;30.30;99.90
60234;DHT22;49514;43.538;-5.708;2022-08-23T12:27:45;30.30;99.90
60234;DHT22;49514;43.538;-5.708;2022-08-23T12:30:21;29.80;99.90
60234;DHT22;49514;43.538;-5.708;2022-08-23T12:40:49;30.40;99.90
60234;DHT22;49514;43.538;-5.708;2022-08-23T12:45:54;31.00;99.90
60234;DHT22;49514;43.538;-5.708;2022-08-23T12:48:26;31.20;99.90
60234;DHT22;49514;43.538;-5.708;2022-08-23T12:51:01;31.70;99.90
60234;DHT22;49514;43.538;-5.708;2022-08-23T12:53:38;31.80;99.90
60234;DHT22;49514;43.538;-5.708;2022-08-23T12:56:15;31.60;99.90
60234;DHT22;49514;43.538;-5.708;2022-08-23T12:58:53;31.60;99.90
60234;DHT22;49514;43.538;-5.708;2022-08-23T13:01:25;31.60;99.90
60234;DHT22;49514;43.538;-5.708;2022-08-23T13:04:12;31.60;99.90
60234;DHT22;49514;43.538;-5.708;2022-08-23T13:11:42;31.90;99.90
60234;DHT22;49514;43.538;-5.708;2022-08-23T13:19:39;31.60;99.90
60234;DHT22;49514;43.538;-5.708;2022-08-23T13:27:36;30.60;99.90
60234;DHT22;49514;43.538;-5.708;2022-08-23T13:32:37;29.90;99.90
60234;DHT22;49514;43.538;-5.708;2022-08-23T13:40:54;29.50;99.90
60234;DHT22;49514;43.538;-5.708;2022-08-23T13:43:32;29.60;99.90
60234;DHT22;49514;43.538;-5.708;2022-08-23T13:46:27;29.70;99.90
60234;DHT22;49514;43.538;-5.708;2022-08-23T13:49:02;29.80;99.90
60234;DHT22;49514;43.538;-5.708;2022-08-23T13:51:36;30.20;99.90
60234;DHT22;49514;43.538;-5.708;2022-08-23T13:54:09;30.30;99.90
60234;DHT22;49514;43.538;-5.708;2022-08-23T13:56:46;30.50;99.90
60234;DHT22;49514;43.538;-5.708;2022-08-23T14:01:52;30.80;99.90
60234;DHT22;49514;43.538;-5.708;2022-08-23T14:04:19;31.00;99.90
60234;DHT22;49514;43.538;-5.708;2022-08-23T14:06:46;31.10;99.90
60234;DHT22;49514;43.538;-5.708;2022-08-23T14:09:14;31.40;99.90
60234;DHT22;49514;43.538;-5.708;2022-08-23T14:11:49;31.40;99.90
60234;DHT22;49514;43.538;-5.708;2022-08-23T14:14:17;32.00;99.90
60234;DHT22;49514;43.538;-5.708;2022-08-23T14:16:44;32.30;99.90
60234;DHT22;49514;43.538;-5.708;2022-08-23T14:19:11;33.50;99.90
60234;DHT22;49514;43.538;-5.708;2022-08-23T14:21:37;34.70;99.90
60234;DHT22;49514;43.538;-5.708;2022-08-23T14:24:05;36.40;99.90
60234;DHT22;49514;43.538;-5.708;2022-08-23T14:26:31;37.30;97.50
60234;DHT22;49514;43.538;-5.708;2022-08-23T14:28:58;38.40;95.40
60234;DHT22;49514;43.538;-5.708;2022-08-23T14:31:25;39.60;91.70
60234;DHT22;49514;43.538;-5.708;2022-08-23T14:33:51;40.80;92.60
60234;DHT22;49514;43.538;-5.708;2022-08-23T14:36:18;41.80;83.00
60234;DHT22;49514;43.538;-5.708;2022-08-23T14:38:44;42.00;85.40
60234;DHT22;49514;43.538;-5.708;2022-08-23T14:41:18;42.80;83.80
60234;DHT22;49514;43.538;-5.708;2022-08-23T14:43:47;43.40;79.00
60234;DHT22;49514;43.538;-5.708;2022-08-23T14:46:15;44.20;77.40
60234;DHT22;49514;43.538;-5.708;2022-08-23T14:48:41;45.00;76.10
60234;DHT22;49514;43.538;-5.708;2022-08-23T14:51:13;45.80;70.90
60234;DHT22;49514;43.538;-5.708;2022-08-23T14:53:43;46.40;71.00
60234;DHT22;49514;43.538;-5.708;2022-08-23T14:56:10;46.90;65.70
60234;DHT22;49514;43.538;-5.708;2022-08-23T14:58:37;47.10;66.70
60234;DHT22;49514;43.538;-5.708;2022-08-23T15:01:05;47.10;65.30
60234;DHT22;49514;43.538;-5.708;2022-08-23T15:03:31;46.40;65.10
60234;DHT22;49514;43.538;-5.708;2022-08-23T15:05:58;45.90;62.40
60234;DHT22;49514;43.538;-5.708;2022-08-23T15:08:25;45.30;65.00
60234;DHT22;49514;43.538;-5.708;2022-08-23T15:10:51;46.40;63.30
60234;DHT22;49514;43.538;-5.708;2022-08-23T15:13:20;47.00;63.10
60234;DHT22;49514;43.538;-5.708;2022-08-23T15:15:49;47.70;62.00
60234;DHT22;49514;43.538;-5.708;2022-08-23T15:18:16;47.50;58.40
60234;DHT22;49514;43.538;-5.708;2022-08-23T15:20:43;46.10;60.90
60234;DHT22;49514;43.538;-5.708;2022-08-23T15:23:11;46.00;60.00
60234;DHT22;49514;43.538;-5.708;2022-08-23T15:28:06;45.20;60.60
60234;DHT22;49514;43.538;-5.708;2022-08-23T15:33:00;44.60;86.80
60234;DHT22;49514;43.538;-5.708;2022-08-23T15:35:28;43.40;62.30
60234;DHT22;49514;43.538;-5.708;2022-08-23T15:37:55;42.50;62.80
60234;DHT22;49514;43.538;-5.708;2022-08-23T15:40:22;41.50;63.70
60234;DHT22;49514;43.538;-5.708;2022-08-23T15:42:49;41.00;64.70
60234;DHT22;49514;43.538;-5.708;2022-08-23T15:45:16;40.80;65.30
60234;DHT22;49514;43.538;-5.708;2022-08-23T15:47:53;40.80;65.70
60234;DHT22;49514;43.538;-5.708;2022-08-23T15:50:21;40.40;65.50
60234;DHT22;49514;43.538;-5.708;2022-08-23T15:52:48;39.70;66.70
60234;DHT22;49514;43.538;-5.708;2022-08-23T16:00:08;38.70;68.20
60234;DHT22;49514;43.538;-5.708;2022-08-23T16:02:38;38.80;68.80
60234;DHT22;49514;43.538;-5.708;2022-08-23T16:07:32;39.00;68.80
60234;DHT22;49514;43.538;-5.708;2022-08-23T16:09:59;38.90;68.60
60234;DHT22;49514;43.538;-5.708;2022-08-23T16:12:29;38.50;69.30
60234;DHT22;49514;43.538;-5.708;2022-08-23T16:14:56;38.00;70.20
60234;DHT22;49514;43.538;-5.708;2022-08-23T16:17:23;37.90;70.20
60234;DHT22;49514;43.538;-5.708;2022-08-23T16:19:49;38.00;70.30
60234;DHT22;49514;43.538;-5.708;2022-08-23T16:22:16;37.40;71.10
60234;DHT22;49514;43.538;-5.708;2022-08-23T16:24:43;37.00;72.20
60234;DHT22;49514;43.538;-5.708;2022-08-23T16:27:10;36.60;72.60
60234;DHT22;49514;43.538;-5.708;2022-08-23T16:32:06;35.10;80.80
60234;DHT22;49514;43.538;-5.708;2022-08-23T16:34:32;34.40;78.00
60234;DHT22;49514;43.538;-5.708;2022-08-23T16:37:00;33.90;79.90
60234;DHT22;49514;43.538;-5.708;2022-08-23T16:41:55;33.00;90.20
60234;DHT22;49514;43.538;-5.708;2022-08-23T16:44:21;32.70;85.40
60234;DHT22;49514;43.538;-5.708;2022-08-23T16:46:48;32.30;84.70
60234;DHT22;49514;43.538;-5.708;2022-08-23T16:49:16;32.00;88.80
60234;DHT22;49514;43.538;-5.708;2022-08-23T16:51:44;31.60;90.20
60234;DHT22;49514;43.538;-5.708;2022-08-23T16:54:11;31.30;89.60
60234;DHT22;49514;43.538;-5.708;2022-08-23T16:56:38;31.10;90.70
60234;DHT22;49514;43.538;-5.708;2022-08-23T16:59:06;30.70;92.30
60234;DHT22;49514;43.538;-5.708;2022-08-23T17:01:47;30.40;93.90
60234;DHT22;49514;43.538;-5.708;2022-08-23T17:04:14;30.10;95.20
60234;DHT22;49514;43.538;-5.708;2022-08-23T17:06:40;29.90;95.10
60234;DHT22;49514;43.538;-5.708;2022-08-23T17:09:08;29.80;95.70
60234;DHT22;49514;43.538;-5.708;2022-08-23T17:11:35;29.70;96.40
60234;DHT22;49514;43.538;-5.708;2022-08-23T17:14:02;29.70;96.60
60234;DHT22;49514;43.538;-5.708;2022-08-23T17:16:31;29.50;97.40
60234;DHT22;49514;43.538;-5.708;2022-08-23T17:18:57;29.40;97.40
60234;DHT22;49514;43.538;-5.708;2022-08-23T17:21:24;29.30;97.90
60234;DHT22;49514;43.538;-5.708;2022-08-23T17:23:51;29.30;97.80
60234;DHT22;49514;43.538;-5.708;2022-08-23T17:26:17;29.20;98.20
60234;DHT22;49514;43.538;-5.708;2022-08-23T17:28:44;29.10;99.00
60234;DHT22;49514;43.538;-5.708;2022-08-23T17:31:11;28.90;98.90
60234;DHT22;49514;43.538;-5.708;2022-08-23T17:33:38;28.60;99.40
60234;DHT22;49514;43.538;-5.708;2022-08-23T17:36:05;28.70;99.10
60234;DHT22;49514;43.538;-5.708;2022-08-23T17:38:32;28.60;98.30
60234;DHT22;49514;43.538;-5.708;2022-08-23T17:40:59;28.60;99.60
60234;DHT22;49514;43.538;-5.708;2022-08-23T17:43:26;28.60;98.50
60234;DHT22;49514;43.538;-5.708;2022-08-23T17:45:53;28.50;99.10
60234;DHT22;49514;43.538;-5.708;2022-08-23T17:48:20;28.40;99.30
60234;DHT22;49514;43.538;-5.708;2022-08-23T17:50:47;28.30;99.00
60234;DHT22;49514;43.538;-5.708;2022-08-23T17:53:14;28.30;99.20
60234;DHT22;49514;43.538;-5.708;2022-08-23T17:55:41;28.20;99.20
60234;DHT22;49514;43.538;-5.708;2022-08-23T17:58:08;28.20;98.70
60234;DHT22;49514;43.538;-5.708;2022-08-23T18:00:35;28.10;99.30
60234;DHT22;49514;43.538;-5.708;2022-08-23T18:03:02;28.10;99.90
60234;DHT22;49514;43.538;-5.708;2022-08-23T18:05:30;28.00;99.90
60234;DHT22;49514;43.538;-5.708;2022-08-23T18:07:58;28.00;99.90
60234;DHT22;49514;43.538;-5.708;2022-08-23T18:10:25;27.90;99.90
60234;DHT22;49514;43.538;-5.708;2022-08-23T18:12:52;27.80;99.90
60234;DHT22;49514;43.538;-5.708;2022-08-23T18:15:18;27.60;99.90